Costa Adriatica — IFQQ — position and weather

sailwx.info

Track history (hours):
 
Tides and Currents Weather Stations Pressure Air Temp Water Temp Dewpoint Dewpoint Depression Visibility Wind Speed Wind Dir Waves Ship Positions

Costa Adriatica

Last reported at 2017-Jul-22 15:47 UTC. Time now 2017-Jul-22 18:32 UTC.
Position N 45°38' E 012°60'.

Length 28 m.

Type: Passenger vessel. MMSI: 247194400.

Date/timePositionNaut miles runAvg speedWind from/ knotsBaromVisibWave heightAir tempDewpointWater temp
2017-Jul-22 15:47N 45°38' E 012°60'311.4
2017-Jul-22 15:30N 45°36' E 012°56'1019.6
2017-Jul-22 15:00N 45°31' E 012°44'1616.0
2017-Jul-22 14:00N 45°26' E 012°22'1 2.1
2017-Jul-22 13:30N 45°26' E 012°21'0 0.0
2017-Jul-22 13:00N 45°26' E 012°21'0 0.0
2017-Jul-22 12:30N 45°26' E 012°21'0 0.0
2017-Jul-22 12:00N 45°26' E 012°21'0 0.0
2017-Jul-22 11:30N 45°26' E 012°21'0 0.0
2017-Jul-22 11:00N 45°26' E 012°21'0 0.0
2017-Jul-22 10:30N 45°26' E 012°21'0 0.0
2017-Jul-22 10:00N 45°26' E 012°21'0 0.0
2017-Jul-22 09:30N 45°26' E 012°21'0 0.0
2017-Jul-22 09:00N 45°26' E 012°21'0 0.0
2017-Jul-22 08:30N 45°26' E 012°21'3 6.0
2017-Jul-22 08:00N 45°26' E 012°25'918.4
2017-Jul-22 07:31N 45°29' E 012°37'1019.5
2017-Jul-22 07:00N 45°34' E 012°50'815.2
2017-Jul-22 06:30N 45°38' E 012°59'25 0.6
2017-Jul-20 14:31N 45°26' E 012°27'4 8.0
2017-Jul-20 14:01N 45°26' E 012°21'0 0.7
2017-Jul-20 13:30N 45°26' E 012°21'0 0.0
2017-Jul-20 13:00N 45°26' E 012°21'0 0.0
2017-Jul-20 12:30N 45°26' E 012°21'0 0.0
2017-Jul-20 12:00N 45°26' E 012°21'0 0.0
2017-Jul-20 11:30N 45°26' E 012°21'0 0.0
2017-Jul-20 11:00N 45°26' E 012°21'0 0.0
2017-Jul-20 10:30N 45°26' E 012°21'0 0.0
2017-Jul-20 10:01N 45°26' E 012°21'0 0.0
2017-Jul-20 09:30N 45°26' E 012°21'0 0.0
2017-Jul-20 09:00N 45°26' E 012°21'0 0.0
2017-Jul-20 08:30N 45°26' E 012°21'2115.3
2017-Jul-20 07:10N 45°33' E 012°48'719.1
2017-Jul-20 06:47N 45°37' E 012°57'2 0.1
2017-Jul-19 16:04N 45°38' E 012°60'0 7.2
2017-Jul-19 16:00N 45°38' E 012°59'816.4
2017-Jul-19 15:30N 45°33' E 012°49'1019.2
2017-Jul-19 15:00N 45°29' E 012°37'917.4
2017-Jul-19 14:30N 45°25' E 012°26'3 6.4
2017-Jul-19 14:00N 45°26' E 012°21'0 0.0
2017-Jul-19 13:30N 45°26' E 012°21'0 0.0
2017-Jul-19 13:00N 45°26' E 012°21'0 0.0
2017-Jul-19 12:31N 45°26' E 012°21'0 0.0
2017-Jul-19 12:00N 45°26' E 012°21'0 0.0
2017-Jul-19 11:30N 45°26' E 012°21'0 0.0
2017-Jul-19 11:00N 45°26' E 012°21'0 0.0
2017-Jul-19 10:31N 45°26' E 012°21'0 0.0
2017-Jul-19 10:00N 45°26' E 012°21'0 0.0
2017-Jul-19 09:30N 45°26' E 012°21'0 0.0
2017-Jul-19 09:00N 45°26' E 012°21'0 0.0
2017-Jul-19 08:30N 45°26' E 012°21'5 9.0
2017-Jul-19 08:00N 45°26' E 012°27'918.8
2017-Jul-19 07:30N 45°30' E 012°40'918.9
2017-Jul-19 07:00N 45°35' E 012°51'713.4
2017-Jul-19 06:30N 45°38' E 012°60'1 0.1
2017-Jul-18 15:53N 45°37' E 012°59'617.2
2017-Jul-18 15:30N 45°34' E 012°50'1019.1
2017-Jul-18 15:00N 45°30' E 012°38'1312.8
2017-Jul-18 14:00N 45°26' E 012°21'0 0.1
2017-Jul-18 13:30N 45°26' E 012°21'0 0.0
2017-Jul-18 13:00N 45°26' E 012°21'0 0.0
2017-Jul-18 12:30N 45°26' E 012°21'0 0.0
2017-Jul-18 12:00N 45°26' E 012°21'0 0.0
2017-Jul-18 11:30N 45°26' E 012°21'0 0.0
2017-Jul-18 11:00N 45°26' E 012°21'0 0.0
2017-Jul-18 10:30N 45°26' E 012°21'0 0.0
2017-Jul-18 10:00N 45°26' E 012°21'0 0.0
2017-Jul-18 09:30N 45°26' E 012°21'0 0.0
2017-Jul-18 09:00N 45°26' E 012°21'0 0.6
2017-Jul-18 08:30N 45°26' E 012°21'510.1
2017-Jul-18 08:00N 45°26' E 012°29'918.8
2017-Jul-18 07:30N 45°30' E 012°41'918.9
2017-Jul-18 07:00N 45°35' E 012°52'5 0.3
2017-Jul-17 15:53N 45°38' E 012°59'616.1
2017-Jul-17 15:31N 45°34' E 012°51'918.5
2017-Jul-17 15:01N 45°30' E 012°40'1019.1
2017-Jul-17 14:30N 45°26' E 012°27'4 8.4
2017-Jul-17 14:00N 45°26' E 012°21'0 0.8
2017-Jul-17 13:30N 45°26' E 012°21'0 0.0
2017-Jul-17 13:00N 45°26' E 012°21'0 0.0
2017-Jul-17 12:30N 45°26' E 012°21'0 0.0
2017-Jul-17 12:00N 45°26' E 012°21'0 0.0
2017-Jul-17 11:30N 45°26' E 012°21'0 0.0
2017-Jul-17 11:00N 45°26' E 012°21'0 0.0
2017-Jul-17 10:30N 45°26' E 012°21'0 0.0
2017-Jul-17 10:01N 45°26' E 012°21'0 0.0
2017-Jul-17 09:30N 45°26' E 012°21'0 0.0
2017-Jul-17 09:00N 45°26' E 012°21'0 0.1
2017-Jul-17 08:30N 45°26' E 012°21'510.3
2017-Jul-17 08:00N 45°26' E 012°29'918.5
2017-Jul-17 07:30N 45°30' E 012°40'918.7
2017-Jul-17 07:00N 45°35' E 012°52'612.3
2017-Jul-17 06:30N 45°38' E 012°60'0 0.0
2017-Jul-17 05:59N 45°38' E 012°60'0 0.0
2017-Jul-17 05:29N 45°38' E 012°60'3 5.8
2017-Jul-17 05:00N 45°36' E 012°56'3 0.1
2017-Jul-16 04:30N 45°36' E 012°52'815.7
2017-Jul-16 04:01N 45°31' E 012°43'1019.6
2017-Jul-16 03:30N 45°27' E 012°30'3 6.4
2017-Jul-16 03:01N 45°27' E 012°25'1 0.6
2017-Jul-16 00:47N 45°27' E 012°27'0 0.0
2017-Jul-16 00:28N 45°27' E 012°27'0 1.0
2017-Jul-16 00:00N 45°28' E 012°27'2 4.4
2017-Jul-15 23:30N 45°26' E 012°25'1 3.0
2017-Jul-15 23:00N 45°26' E 012°27'3 6.4
2017-Jul-15 22:30N 45°26' E 012°23'1 2.4
2017-Jul-15 22:00N 45°26' E 012°21'0 0.0
2017-Jul-15 21:30N 45°26' E 012°21'0 0.1
2017-Jul-15 21:00N 45°26' E 012°21'0 0.0
2017-Jul-15 20:30N 45°26' E 012°21'0 0.0
2017-Jul-15 20:00N 45°26' E 012°21'0 0.0
2017-Jul-15 19:30N 45°26' E 012°21'0 0.0
2017-Jul-15 19:00N 45°26' E 012°21'0 0.0
2017-Jul-15 18:30N 45°26' E 012°21'0 0.0
2017-Jul-15 18:00N 45°26' E 012°21'1 1.7
2017-Jul-15 17:30N 45°25' E 012°22'3 6.0
2017-Jul-15 17:00N 45°28' E 012°23'2 3.2
2017-Jul-15 16:30N 45°29' E 012°25'0 0.0
2017-Jul-15 16:00N 45°29' E 012°25'0 0.0
2017-Jul-15 15:30N 45°29' E 012°25'1 1.2
2017-Jul-15 15:00N 45°29' E 012°26'7 7.0
2017-Jul-15 14:00N 45°28' E 012°36'612.3
2017-Jul-15 13:30N 45°31' E 012°44'612.1
2017-Jul-15 13:00N 45°34' E 012°51'7 0.1
2017-Jul-13 15:54N 45°38' E 012°59'512.8
2017-Jul-13 15:31N 45°35' E 012°53'918.5
2017-Jul-13 15:01N 45°31' E 012°42'918.6
2017-Jul-13 14:30N 45°27' E 012°30'510.7
2017-Jul-13 14:00N 45°25' E 012°22'1 1.8
2017-Jul-13 13:30N 45°26' E 012°21'0 0.0
2017-Jul-13 13:00N 45°26' E 012°21'0 0.0
2017-Jul-13 12:30N 45°26' E 012°21'0 0.0
2017-Jul-13 12:00N 45°26' E 012°21'0 0.0
2017-Jul-13 11:30N 45°26' E 012°21'0 0.0
2017-Jul-13 11:00N 45°26' E 012°21'0 0.0
2017-Jul-13 10:30N 45°26' E 012°21'0 0.0
2017-Jul-13 10:00N 45°26' E 012°21'0 0.0
2017-Jul-13 09:30N 45°26' E 012°21'0 0.0
2017-Jul-13 09:00N 45°26' E 012°21'0 0.0
2017-Jul-13 08:30N 45°26' E 012°21'5 9.9
2017-Jul-13 08:00N 45°26' E 012°28'1019.6
2017-Jul-13 07:30N 45°30' E 012°41'1019.6
2017-Jul-13 07:00N 45°35' E 012°53'5 0.3
2017-Jul-12 15:57N 45°38' E 012°59'  
Track history (hours):
 
Tides and Currents Weather Stations Pressure Air Temp Water Temp Dewpoint Dewpoint Depression Visibility Wind Speed Wind Dir Waves Ship Positions

Costa Adriatica

Last reported at 2017-Jul-22 15:47 UTC. Time now 2017-Jul-22 18:32 UTC.
Position N 45°38' E 012°60'.

Length 28 m.

Type: Passenger vessel. MMSI: 247194400.

Date/timePositionNaut miles runAvg speedWind from/ knotsBaromVisibWave heightAir tempDewpointWater temp
2017-Jul-22 15:47N 45°38' E 012°60'311.4
2017-Jul-22 15:30N 45°36' E 012°56'1019.6
2017-Jul-22 15:00N 45°31' E 012°44'1616.0
2017-Jul-22 14:00N 45°26' E 012°22'1 2.1
2017-Jul-22 13:30N 45°26' E 012°21'0 0.0
2017-Jul-22 13:00N 45°26' E 012°21'0 0.0
2017-Jul-22 12:30N 45°26' E 012°21'0 0.0
2017-Jul-22 12:00N 45°26' E 012°21'0 0.0
2017-Jul-22 11:30N 45°26' E 012°21'0 0.0
2017-Jul-22 11:00N 45°26' E 012°21'0 0.0
2017-Jul-22 10:30N 45°26' E 012°21'0 0.0
2017-Jul-22 10:00N 45°26' E 012°21'0 0.0
2017-Jul-22 09:30N 45°26' E 012°21'0 0.0
2017-Jul-22 09:00N 45°26' E 012°21'0 0.0
2017-Jul-22 08:30N 45°26' E 012°21'3 6.0
2017-Jul-22 08:00N 45°26' E 012°25'918.4
2017-Jul-22 07:31N 45°29' E 012°37'1019.5
2017-Jul-22 07:00N 45°34' E 012°50'815.2
2017-Jul-22 06:30N 45°38' E 012°59'25 0.6
2017-Jul-20 14:31N 45°26' E 012°27'4 8.0
2017-Jul-20 14:01N 45°26' E 012°21'0 0.7
2017-Jul-20 13:30N 45°26' E 012°21'0 0.0
2017-Jul-20 13:00N 45°26' E 012°21'0 0.0
2017-Jul-20 12:30N 45°26' E 012°21'0 0.0
2017-Jul-20 12:00N 45°26' E 012°21'0 0.0
2017-Jul-20 11:30N 45°26' E 012°21'0 0.0
2017-Jul-20 11:00N 45°26' E 012°21'0 0.0
2017-Jul-20 10:30N 45°26' E 012°21'0 0.0
2017-Jul-20 10:01N 45°26' E 012°21'0 0.0
2017-Jul-20 09:30N 45°26' E 012°21'0 0.0
2017-Jul-20 09:00N 45°26' E 012°21'0 0.0
2017-Jul-20 08:30N 45°26' E 012°21'2115.3
2017-Jul-20 07:10N 45°33' E 012°48'719.1
2017-Jul-20 06:47N 45°37' E 012°57'2 0.1
2017-Jul-19 16:04N 45°38' E 012°60'0 7.2
2017-Jul-19 16:00N 45°38' E 012°59'816.4
2017-Jul-19 15:30N 45°33' E 012°49'1019.2
2017-Jul-19 15:00N 45°29' E 012°37'917.4
2017-Jul-19 14:30N 45°25' E 012°26'3 6.4
2017-Jul-19 14:00N 45°26' E 012°21'0 0.0
2017-Jul-19 13:30N 45°26' E 012°21'0 0.0
2017-Jul-19 13:00N 45°26' E 012°21'0 0.0
2017-Jul-19 12:31N 45°26' E 012°21'0 0.0
2017-Jul-19 12:00N 45°26' E 012°21'0 0.0
2017-Jul-19 11:30N 45°26' E 012°21'0 0.0
2017-Jul-19 11:00N 45°26' E 012°21'0 0.0
2017-Jul-19 10:31N 45°26' E 012°21'0 0.0
2017-Jul-19 10:00N 45°26' E 012°21'0 0.0
2017-Jul-19 09:30N 45°26' E 012°21'0 0.0
2017-Jul-19 09:00N 45°26' E 012°21'0 0.0
2017-Jul-19 08:30N 45°26' E 012°21'5 9.0
2017-Jul-19 08:00N 45°26' E 012°27'918.8
2017-Jul-19 07:30N 45°30' E 012°40'918.9
2017-Jul-19 07:00N 45°35' E 012°51'713.4
2017-Jul-19 06:30N 45°38' E 012°60'1 0.1
2017-Jul-18 15:53N 45°37' E 012°59'617.2
2017-Jul-18 15:30N 45°34' E 012°50'1019.1
2017-Jul-18 15:00N 45°30' E 012°38'1312.8
2017-Jul-18 14:00N 45°26' E 012°21'0 0.1
2017-Jul-18 13:30N 45°26' E 012°21'0 0.0
2017-Jul-18 13:00N 45°26' E 012°21'0 0.0
2017-Jul-18 12:30N 45°26' E 012°21'0 0.0
2017-Jul-18 12:00N 45°26' E 012°21'0 0.0
2017-Jul-18 11:30N 45°26' E 012°21'0 0.0
2017-Jul-18 11:00N 45°26' E 012°21'0 0.0
2017-Jul-18 10:30N 45°26' E 012°21'0 0.0
2017-Jul-18 10:00N 45°26' E 012°21'0 0.0
2017-Jul-18 09:30N 45°26' E 012°21'0 0.0
2017-Jul-18 09:00N 45°26' E 012°21'0 0.6
2017-Jul-18 08:30N 45°26' E 012°21'510.1
2017-Jul-18 08:00N 45°26' E 012°29'918.8
2017-Jul-18 07:30N 45°30' E 012°41'918.9
2017-Jul-18 07:00N 45°35' E 012°52'5 0.3
2017-Jul-17 15:53N 45°38' E 012°59'616.1
2017-Jul-17 15:31N 45°34' E 012°51'918.5
2017-Jul-17 15:01N 45°30' E 012°40'1019.1
2017-Jul-17 14:30N 45°26' E 012°27'4 8.4
2017-Jul-17 14:00N 45°26' E 012°21'0 0.8
2017-Jul-17 13:30N 45°26' E 012°21'0 0.0
2017-Jul-17 13:00N 45°26' E 012°21'0 0.0
2017-Jul-17 12:30N 45°26' E 012°21'0 0.0
2017-Jul-17 12:00N 45°26' E 012°21'0 0.0
2017-Jul-17 11:30N 45°26' E 012°21'0 0.0
2017-Jul-17 11:00N 45°26' E 012°21'0 0.0
2017-Jul-17 10:30N 45°26' E 012°21'0 0.0
2017-Jul-17 10:01N 45°26' E 012°21'0 0.0
2017-Jul-17 09:30N 45°26' E 012°21'0 0.0
2017-Jul-17 09:00N 45°26' E 012°21'0 0.1
2017-Jul-17 08:30N 45°26' E 012°21'510.3
2017-Jul-17 08:00N 45°26' E 012°29'918.5
2017-Jul-17 07:30N 45°30' E 012°40'918.7
2017-Jul-17 07:00N 45°35' E 012°52'612.3
2017-Jul-17 06:30N 45°38' E 012°60'0 0.0
2017-Jul-17 05:59N 45°38' E 012°60'0 0.0
2017-Jul-17 05:29N 45°38' E 012°60'3 5.8
2017-Jul-17 05:00N 45°36' E 012°56'3 0.1
2017-Jul-16 04:30N 45°36' E 012°52'815.7
2017-Jul-16 04:01N 45°31' E 012°43'1019.6
2017-Jul-16 03:30N 45°27' E 012°30'3 6.4
2017-Jul-16 03:01N 45°27' E 012°25'1 0.6
2017-Jul-16 00:47N 45°27' E 012°27'0 0.0
2017-Jul-16 00:28N 45°27' E 012°27'0 1.0
2017-Jul-16 00:00N 45°28' E 012°27'2 4.4
2017-Jul-15 23:30N 45°26' E 012°25'1 3.0
2017-Jul-15 23:00N 45°26' E 012°27'3 6.4
2017-Jul-15 22:30N 45°26' E 012°23'1 2.4
2017-Jul-15 22:00N 45°26' E 012°21'0 0.0
2017-Jul-15 21:30N 45°26' E 012°21'0 0.1
2017-Jul-15 21:00N 45°26' E 012°21'0 0.0
2017-Jul-15 20:30N 45°26' E 012°21'0 0.0
2017-Jul-15 20:00N 45°26' E 012°21'0 0.0
2017-Jul-15 19:30N 45°26' E 012°21'0 0.0
2017-Jul-15 19:00N 45°26' E 012°21'0 0.0
2017-Jul-15 18:30N 45°26' E 012°21'0 0.0
2017-Jul-15 18:00N 45°26' E 012°21'1 1.7
2017-Jul-15 17:30N 45°25' E 012°22'3 6.0
2017-Jul-15 17:00N 45°28' E 012°23'2 3.2
2017-Jul-15 16:30N 45°29' E 012°25'0 0.0
2017-Jul-15 16:00N 45°29' E 012°25'0 0.0
2017-Jul-15 15:30N 45°29' E 012°25'1 1.2
2017-Jul-15 15:00N 45°29' E 012°26'7 7.0
2017-Jul-15 14:00N 45°28' E 012°36'612.3
2017-Jul-15 13:30N 45°31' E 012°44'612.1
2017-Jul-15 13:00N 45°34' E 012°51'7 0.1
2017-Jul-13 15:54N 45°38' E 012°59'512.8
2017-Jul-13 15:31N 45°35' E 012°53'918.5
2017-Jul-13 15:01N 45°31' E 012°42'918.6
2017-Jul-13 14:30N 45°27' E 012°30'510.7
2017-Jul-13 14:00N 45°25' E 012°22'1 1.8
2017-Jul-13 13:30N 45°26' E 012°21'0 0.0
2017-Jul-13 13:00N 45°26' E 012°21'0 0.0
2017-Jul-13 12:30N 45°26' E 012°21'0 0.0
2017-Jul-13 12:00N 45°26' E 012°21'0 0.0
2017-Jul-13 11:30N 45°26' E 012°21'0 0.0
2017-Jul-13 11:00N 45°26' E 012°21'0 0.0
2017-Jul-13 10:30N 45°26' E 012°21'0 0.0
2017-Jul-13 10:00N 45°26' E 012°21'0 0.0
2017-Jul-13 09:30N 45°26' E 012°21'0 0.0
2017-Jul-13 09:00N 45°26' E 012°21'0 0.0
2017-Jul-13 08:30N 45°26' E 012°21'5 9.9
2017-Jul-13 08:00N 45°26' E 012°28'1019.6
2017-Jul-13 07:30N 45°30' E 012°41'1019.6
2017-Jul-13 07:00N 45°35' E 012°53'5 0.3
2017-Jul-12 15:57N 45°38' E 012°59'  

Dump ship's entire track history